Time;durP1;ratioP1;P1;durP2;ratioP2;P2;SDS_P1;SDS_P2;PMS_P1;PMS_P2;Temp;Humidity;BMP_temperature;BMP_pressure;BME280_temperature;BME280_humidity;BME280_pressure;Samples;Min_cycle;Max_cycle;Signal;HPM_P1;HPM_P2
2022/09/24 00:00:00;;;;;;;7.59;6.94;;;;;;;10.75;70.19;100424.90;461309;114;922820;-77
2022/09/24 00:01:12;;;;;;;7.29;6.77;;;;;;;10.74;70.26;100429.52;462200;114;922601;-77
2022/09/24 00:02:17;;;;;;;7.72;7.12;;;;;;;10.74;70.27;100425.95;461799;114;922379;-77
2022/09/24 00:03:22;;;;;;;7.39;6.91;;;;;;;10.73;70.25;100419.66;462146;114;923139;-78
2022/09/24 00:04:30;;;;;;;8.09;7.38;;;;;;;10.72;70.13;100425.32;461943;114;922534;-77
2022/09/24 00:05:38;;;;;;;8.05;7.47;;;;;;;10.70;70.16;100422.80;461636;114;923081;-77
2022/09/24 00:06:44;;;;;;;7.54;6.96;;;;;;;10.69;70.01;100423.05;461643;114;922587;-79
2022/09/24 00:07:47;;;;;;;7.62;7.03;;;;;;;10.67;70.05;100428.71;453309;117;930604;-77
2022/09/24 00:08:54;;;;;;;7.75;7.10;;;;;;;10.66;69.98;100420.73;453904;114;922704;-77
2022/09/24 00:09:57;;;;;;;8.16;7.25;;;;;;;10.64;69.98;100426.41;461966;114;922571;-77
2022/09/24 00:11:03;;;;;;;6.83;6.28;;;;;;;10.62;69.96;100419.52;462134;114;922997;-77
2022/09/24 00:12:06;;;;;;;7.64;7.14;;;;;;;10.61;69.87;100418.67;461967;114;923041;-77
2022/09/24 00:13:11;;;;;;;7.24;6.74;;;;;;;10.59;69.79;100425.39;462140;114;923195;-77
2022/09/24 00:14:15;;;;;;;7.54;6.91;;;;;;;10.58;69.78;100415.56;461945;114;922895;-77
2022/09/24 00:15:18;;;;;;;7.16;6.65;;;;;;;10.54;69.84;100415.14;462096;114;922584;-77
2022/09/24 00:16:24;;;;;;;7.03;6.49;;;;;;;10.53;69.74;100418.92;454313;116;922555;-77
2022/09/24 00:17:27;;;;;;;7.10;6.58;;;;;;;10.52;69.74;100419.16;454116;116;922878;-77
2022/09/24 00:18:30;;;;;;;7.24;6.66;;;;;;;10.50;69.71;100423.98;455422;116;923014;-78
2022/09/24 00:19:33;;;;;;;6.66;6.12;;;;;;;10.49;69.72;100425.03;451998;117;922493;-77
2022/09/24 00:20:38;;;;;;;7.18;6.67;;;;;;;10.47;69.70;100425.27;445969;119;922625;-78
2022/09/24 00:21:41;;;;;;;6.72;6.12;;;;;;;10.45;69.72;100425.48;457611;113;922732;-78
2022/09/24 00:22:45;;;;;;;7.12;6.61;;;;;;;10.42;69.77;100423.17;466324;113;922470;-78
2022/09/24 00:23:49;;;;;;;7.29;6.82;;;;;;;10.42;69.59;100419.61;466367;113;930491;-77
2022/09/24 00:27:36;;;;;;;7.25;6.70;;;;;;;10.37;69.65;100425.72;466278;113;922612;-77
2022/09/24 00:28:39;;;;;;;7.16;6.66;;;;;;;10.34;69.61;100428.89;466448;113;923034;-78
2022/09/24 00:29:42;;;;;;;6.74;6.26;;;;;;;10.33;69.66;100427.22;465381;113;922618;-78
2022/09/24 00:30:45;;;;;;;6.71;6.25;;;;;;;10.30;69.67;100427.66;460717;115;922959;-77
2022/09/24 00:31:50;;;;;;;7.31;6.82;;;;;;;10.30;69.78;100421.38;465711;113;922805;-77
2022/09/24 00:32:53;;;;;;;6.83;6.33;;;;;;;10.30;69.93;100419.48;466215;113;922539;-79
2022/09/24 00:33:57;;;;;;;6.96;6.46;;;;;;;10.33;70.06;100427.22;466396;113;922948;-77
2022/09/24 00:35:00;;;;;;;6.81;6.35;;;;;;;10.35;70.13;100418.83;466323;113;922415;-77
2022/09/24 00:36:04;;;;;;;6.94;6.54;;;;;;;10.37;70.14;100422.99;466419;113;922575;-77
2022/09/24 00:37:07;;;;;;;6.62;6.12;;;;;;;10.40;70.06;100427.19;466409;113;923252;-78
2022/09/24 00:38:11;;;;;;;7.21;6.79;;;;;;;10.40;70.15;100422.58;466490;113;923252;-78
2022/09/24 00:39:15;;;;;;;6.61;6.19;;;;;;;10.42;70.14;100423.17;466357;113;922503;-77
2022/09/24 00:40:19;;;;;;;6.72;6.32;;;;;;;10.43;70.13;100424.85;466293;113;930500;-77
2022/09/24 00:41:25;;;;;;;6.35;5.95;;;;;;;10.43;70.17;100422.12;466295;113;923089;-78
2022/09/24 00:42:31;;;;;;;6.46;6.06;;;;;;;10.45;70.31;100417.30;466290;113;922519;-78
2022/09/24 00:43:36;;;;;;;7.15;6.55;;;;;;;10.47;70.33;100413.53;466307;113;922480;-77
2022/09/24 00:44:46;;;;;;;7.02;6.42;;;;;;;10.49;70.28;100412.24;466230;113;923339;-78
2022/09/24 00:45:52;;;;;;;6.16;5.68;;;;;;;10.51;70.36;100418.32;466224;113;922944;-77
2022/09/24 00:46:55;;;;;;;6.20;5.80;;;;;;;10.51;70.22;100407.42;466277;113;922472;-77
2022/09/24 00:47:58;;;;;;;6.24;5.84;;;;;;;10.52;70.16;100411.82;466478;113;922866;-77
2022/09/24 00:49:04;;;;;;;5.83;5.46;;;;;;;10.53;70.21;100418.11;466507;113;923007;-77
2022/09/24 00:50:20;;;;;;;5.90;5.43;;;;;;;10.52;70.10;100405.53;465490;113;922472;-78
2022/09/24 00:51:25;;;;;;;6.08;5.64;;;;;;;10.52;70.18;100406.37;466222;113;922451;-77
2022/09/24 00:52:28;;;;;;;5.57;5.11;;;;;;;10.53;70.20;100409.94;465540;113;923144;-77
2022/09/24 00:53:32;;;;;;;6.47;5.97;;;;;;;10.53;70.22;100409.94;465421;114;923174;-77
2022/09/24 00:54:36;;;;;;;6.24;5.78;;;;;;;10.52;70.21;100403.64;465325;114;922891;-76
2022/09/24 00:55:41;;;;;;;5.90;5.20;;;;;;;10.54;70.22;100403.40;455612;115;923538;-78
2022/09/24 00:56:48;;;;;;;5.62;5.31;;;;;;;10.54;70.26;100397.95;456282;114;922908;-77
2022/09/24 00:57:57;;;;;;;5.50;5.15;;;;;;;10.53;70.18;100405.29;465198;114;922988;-77
2022/09/24 00:59:02;;;;;;;5.43;5.07;;;;;;;10.54;70.17;100406.13;465209;114;922576;-77
2022/09/24 01:00:07;;;;;;;5.63;5.23;;;;;;;10.55;70.18;100407.80;455492;116;922921;-77
2022/09/24 01:01:10;;;;;;;5.51;5.12;;;;;;;10.55;70.19;100402.35;447782;116;922673;-78
2022/09/24 01:02:14;;;;;;;5.43;5.11;;;;;;;10.55;70.29;100402.35;465296;114;922858;-78
2022/09/24 01:03:20;;;;;;;5.60;5.20;;;;;;;10.55;70.27;100403.19;465278;114;922511;-78
2022/09/24 01:04:26;;;;;;;6.54;5.29;;;;;;;10.56;70.17;100399.42;465169;114;923023;-78
2022/09/24 01:05:29;;;;;;;4.82;4.52;;;;;;;10.56;70.26;100399.42;465091;113;922786;-78
2022/09/24 01:06:33;;;;;;;5.92;5.52;;;;;;;10.56;70.29;100393.96;465241;114;922518;-77
2022/09/24 01:07:36;;;;;;;5.32;5.02;;;;;;;10.57;70.29;100402.98;465402;114;922517;-78
2022/09/24 01:08:39;;;;;;;5.64;5.24;;;;;;;10.58;70.14;100399.20;465370;114;922505;-77
2022/09/24 01:09:42;;;;;;;6.03;5.45;;;;;;;10.56;70.11;100406.75;465265;114;923175;-77
2022/09/24 01:11:04;;;;;;;5.64;5.18;;;;;;;10.55;70.03;100402.35;465243;114;930549;-77
2022/09/24 01:12:41;;;;;;;5.48;5.12;;;;;;;10.54;70.04;100406.13;455448;116;922589;-78
2022/09/24 01:13:51;;;;;;;6.28;5.78;;;;;;;10.51;69.88;100392.95;460876;114;923500;-77
2022/09/24 01:15:01;;;;;;;6.30;5.80;;;;;;;10.47;69.99;100402.63;464372;114;922568;-77
2022/09/24 01:16:28;;;;;;;5.63;5.15;;;;;;;10.45;70.04;100406.40;458697;114;922491;-78
2022/09/24 01:17:56;;;;;;;5.66;5.27;;;;;;;10.43;69.99;100404.94;457054;116;922589;-77
2022/09/24 01:19:19;;;;;;;5.92;5.52;;;;;;;10.39;70.01;100404.55;457028;116;923069;-77
2022/09/24 01:20:34;;;;;;;5.79;5.41;;;;;;;10.38;70.06;100402.87;457060;116;922623;-78
2022/09/24 01:21:41;;;;;;;5.32;5.02;;;;;;;10.36;70.13;100406.87;457055;116;922765;-78
2022/09/24 01:23:15;;;;;;;5.59;5.20;;;;;;;10.36;70.21;100401.43;457021;116;922607;-78
2022/09/24 01:24:27;;;;;;;5.34;5.04;;;;;;;10.36;70.36;100399.55;442765;118;922765;-78
2022/09/24 01:25:58;;;;;;;5.07;4.72;;;;;;;10.36;70.35;100399.55;457016;116;922695;-77
2022/09/24 01:27:11;;;;;;;5.84;5.40;;;;;;;10.37;70.42;100395.73;456999;116;922680;-78
2022/09/24 01:28:29;;;;;;;5.38;4.98;;;;;;;10.40;70.47;100403.50;456991;116;922503;-78
2022/09/24 01:29:42;;;;;;;5.86;5.42;;;;;;;10.39;70.47;100401.82;457309;114;922642;-77
2022/09/24 01:30:49;;;;;;;6.36;5.67;;;;;;;10.41;70.48;100397.00;462803;114;922925;-77
2022/09/24 01:32:07;;;;;;;5.78;5.38;;;;;;;10.42;70.43;100401.37;465080;114;923073;-78
2022/09/24 01:33:14;;;;;;;6.63;6.13;;;;;;;10.43;70.37;100396.75;465174;114;922554;-77
2022/09/24 01:34:20;;;;;;;5.50;5.09;;;;;;;10.43;70.35;100397.59;465940;113;923016;-77
2022/09/24 01:35:36;;;;;;;5.97;5.38;;;;;;;10.44;70.31;100396.55;466265;113;922471;-77
2022/09/24 01:36:41;;;;;;;5.88;5.48;;;;;;;10.47;70.23;100399.90;466288;113;922568;-78
2022/09/24 01:37:47;;;;;;;5.43;5.03;;;;;;;10.47;70.11;100402.63;466240;113;922683;-78
2022/09/24 01:38:53;;;;;;;5.91;5.51;;;;;;;10.48;70.02;100407.00;466186;113;922985;-77
2022/09/24 01:39:57;;;;;;;6.07;5.56;;;;;;;10.45;69.87;100408.28;466278;113;922820;-79
2022/09/24 01:41:03;;;;;;;8.95;5.71;;;;;;;10.44;69.88;100403.88;466884;112;922525;-77
2022/09/24 01:42:09;;;;;;;6.14;5.74;;;;;;;10.44;69.87;100406.61;466905;113;922471;-77
2022/09/24 01:43:15;;;;;;;5.89;5.49;;;;;;;10.44;69.86;100402.00;466926;113;922588;-77
2022/09/24 01:44:19;;;;;;;5.91;5.41;;;;;;;10.44;69.89;100398.44;466905;113;922487;-77
2022/09/24 01:45:24;;;;;;;6.09;5.65;;;;;;;10.44;69.92;100395.70;467043;113;922757;-77
2022/09/24 01:46:28;;;;;;;6.31;5.73;;;;;;;10.46;69.93;100388.16;467022;113;922407;-77
2022/09/24 01:47:36;;;;;;;6.65;6.06;;;;;;;10.47;69.93;100391.72;467061;113;922581;-78
2022/09/24 01:48:40;;;;;;;6.28;5.88;;;;;;;10.47;69.88;100389.84;466940;113;922633;-78
2022/09/24 01:49:43;;;;;;;6.74;6.07;;;;;;;10.48;69.83;100382.47;467022;113;922958;-78
2022/09/24 01:50:49;;;;;;;6.96;6.37;;;;;;;10.49;69.80;100389.59;466989;113;930537;-77
2022/09/24 01:52:00;;;;;;;6.51;5.94;;;;;;;10.50;69.78;100388.55;466446;113;922946;-78
2022/09/24 01:53:26;;;;;;;6.29;5.47;;;;;;;10.49;69.67;100384.98;460430;115;922685;-78
2022/09/24 01:54:35;;;;;;;5.81;5.35;;;;;;;10.49;69.59;100389.59;460072;115;931143;-78
2022/09/24 01:55:42;;;;;;;6.64;5.78;;;;;;;10.46;69.49;100385.44;460443;113;922426;-76
2022/09/24 01:56:50;;;;;;;6.44;6.04;;;;;;;10.44;69.48;100382.92;460565;115;922733;-78
2022/09/24 01:58:00;;;;;;;5.84;5.42;;;;;;;10.42;69.37;100385.02;460551;115;922500;-78
2022/09/24 01:59:15;;;;;;;6.44;5.46;;;;;;;10.41;69.30;100377.92;459958;115;923016;-77
2022/09/24 02:00:20;;;;;;;5.87;5.47;;;;;;;10.39;69.11;100382.73;460403;115;922523;-78
2022/09/24 02:01:27;;;;;;;6.21;5.49;;;;;;;10.36;69.00;100390.53;460563;115;922429;-78
2022/09/24 02:02:37;;;;;;;5.84;5.39;;;;;;;10.32;68.93;100387.38;460546;115;922600;-78
2022/09/24 02:03:44;;;;;;;6.19;5.71;;;;;;;10.27;68.92;100384.48;460924;115;923499;-78
2022/09/24 02:04:51;;;;;;;5.97;5.58;;;;;;;10.27;68.92;100384.48;460496;115;923016;-77
2022/09/24 02:06:02;;;;;;;6.13;5.73;;;;;;;10.26;69.01;100388.25;460510;113;923248;-78
2022/09/24 02:07:34;;;;;;;5.92;5.52;;;;;;;10.27;69.09;100391.81;460535;115;922508;-77
2022/09/24 02:08:44;;;;;;;5.68;5.28;;;;;;;10.28;69.21;100379.87;460582;115;922532;-77
2022/09/24 02:09:48;;;;;;;5.36;5.05;;;;;;;10.30;69.35;100388.67;460140;115;923114;-78
2022/09/24 02:10:57;;;;;;;5.88;5.48;;;;;;;10.30;69.41;100384.06;460658;113;922869;-78
2022/09/24 02:12:13;;;;;;;5.83;5.34;;;;;;;10.32;69.42;100381.09;460548;115;922567;-78
2022/09/24 02:13:18;;;;;;;5.87;5.47;;;;;;;10.33;69.34;100378.16;460542;115;922670;-78
2022/09/24 02:14:23;;;;;;;5.87;5.45;;;;;;;10.34;69.31;100382.56;460542;115;922481;-78
2022/09/24 02:15:29;;;;;;;5.62;5.24;;;;;;;10.35;69.38;100381.52;459900;115;922981;-78
2022/09/24 02:16:44;;;;;;;6.34;5.88;;;;;;;10.36;69.23;100376.91;456439;116;922599;-78
2022/09/24 02:17:51;;;;;;;5.91;5.47;;;;;;;10.35;69.17;100373.34;456465;116;922512;-78
2022/09/24 02:18:57;;;;;;;5.87;5.37;;;;;;;10.34;69.11;100379.84;456473;116;922599;-78
2022/09/24 02:20:03;;;;;;;6.17;5.61;;;;;;;10.33;69.07;100374.59;456471;116;923086;-78
2022/09/24 02:21:10;;;;;;;5.75;5.35;;;;;;;10.32;69.15;100373.75;456440;116;922589;-78
2022/09/24 02:22:13;;;;;;;6.01;5.47;;;;;;;10.32;69.04;100378.37;456501;116;923050;-77
2022/09/24 02:23:18;;;;;;;5.81;5.39;;;;;;;10.31;69.10;100379.45;447860;118;922617;-78
2022/09/24 02:24:33;;;;;;;6.16;5.76;;;;;;;10.32;69.17;100376.48;448210;116;923224;-76
2022/09/24 02:25:49;;;;;;;5.69;5.30;;;;;;;10.33;69.27;100388.22;456380;116;922655;-77
2022/09/24 02:26:53;;;;;;;6.40;5.97;;;;;;;10.35;69.18;100386.13;456501;116;923027;-77
2022/09/24 02:27:57;;;;;;;6.62;5.69;;;;;;;10.34;69.20;100384.45;456524;116;922935;-78
2022/09/24 02:29:00;;;;;;;6.58;6.01;;;;;;;10.35;69.22;100381.52;456558;116;923018;-77
2022/09/24 02:30:05;;;;;;;6.53;6.11;;;;;;;10.36;69.39;100380.47;456598;116;922655;-77
2022/09/24 02:31:15;;;;;;;6.82;6.21;;;;;;;10.38;69.30;100381.06;457250;115;922506;-77
2022/09/24 02:32:19;;;;;;;6.52;6.02;;;;;;;10.40;69.32;100378.97;460607;115;923236;-77
2022/09/24 02:34:48;;;;;;;6.43;5.75;;;;;;;10.41;69.13;100386.09;452670;117;922478;-78
2022/09/24 02:35:52;;;;;;;6.04;5.64;;;;;;;10.41;69.06;100385.26;452644;115;922944;-78
2022/09/24 02:36:58;;;;;;;6.56;6.06;;;;;;;10.40;69.00;100386.30;452713;117;922580;-78
2022/09/24 02:38:02;;;;;;;6.11;5.72;;;;;;;10.38;69.03;100383.79;452637;117;922491;-78
2022/09/24 02:39:07;;;;;;;5.18;4.84;;;;;;;10.37;68.86;100386.72;452454;117;922542;-78
2022/09/24 02:40:13;;;;;;;6.12;5.72;;;;;;;10.36;68.85;100393.25;452719;117;922845;-77
2022/09/24 02:41:18;;;;;;;6.35;5.89;;;;;;;10.35;68.92;100391.58;455612;115;923995;-77
2022/09/24 02:42:21;;;;;;;5.44;5.09;;;;;;;10.32;68.77;100395.56;457161;116;923002;-77
2022/09/24 02:43:25;;;;;;;5.59;5.18;;;;;;;10.30;68.67;100392.23;457144;116;930495;-78
2022/09/24 02:44:29;;;;;;;5.67;5.27;;;;;;;10.28;68.62;100382.59;457245;116;930524;-78
2022/09/24 02:45:33;;;;;;;6.36;5.86;;;;;;;10.25;68.60;100391.22;457138;116;923088;-78
2022/09/24 02:46:36;;;;;;;5.84;5.44;;;;;;;10.24;68.72;100390.38;457336;116;922515;-78
2022/09/24 02:47:39;;;;;;;5.59;5.29;;;;;;;10.24;68.81;100390.38;457288;116;922689;-78
2022/09/24 02:48:42;;;;;;;5.71;5.34;;;;;;;10.22;68.75;100381.58;457299;116;922448;-78
2022/09/24 02:49:45;;;;;;;5.81;5.37;;;;;;;10.22;68.82;100384.30;457259;116;922895;-78
2022/09/24 02:50:49;;;;;;;5.44;5.02;;;;;;;10.21;68.74;100384.50;457304;116;923059;-77
2022/09/24 02:51:52;;;;;;;6.47;5.57;;;;;;;10.19;68.68;100386.63;457577;115;922606;-78
2022/09/24 02:52:55;;;;;;;5.63;5.28;;;;;;;10.16;68.62;100387.89;461682;114;922641;-78
2022/09/24 02:54:00;;;;;;;5.66;5.21;;;;;;;10.14;68.53;100387.25;461663;114;922613;-78
2022/09/24 02:55:03;;;;;;;6.14;5.73;;;;;;;10.11;68.41;100390.39;461398;115;922930;-78
2022/09/24 02:56:07;;;;;;;5.94;5.54;;;;;;;10.09;68.43;100391.68;461468;115;922510;-78
2022/09/24 02:57:10;;;;;;;5.94;5.58;;;;;;;10.04;68.43;100390.42;461547;115;930533;-78
2022/09/24 02:58:13;;;;;;;6.01;5.60;;;;;;;10.03;68.40;100393.37;461639;115;922679;-78
2022/09/24 02:59:16;;;;;;;6.22;5.76;;;;;;;10.01;68.51;100390.02;461647;115;923087;-78
2022/09/24 03:00:19;;;;;;;6.52;6.04;;;;;;;10.00;68.41;100393.80;461619;114;922812;-78
2022/09/24 03:01:23;;;;;;;7.00;6.46;;;;;;;9.98;68.43;100396.72;461440;115;922853;-79
2022/09/24 03:02:26;;;;;;;6.74;6.15;;;;;;;9.97;68.53;100399.69;461465;115;930584;-78
2022/09/24 03:03:30;;;;;;;5.85;5.43;;;;;;;9.98;68.66;100390.44;461575;115;922560;-78
2022/09/24 03:04:33;;;;;;;5.76;5.33;;;;;;;9.98;68.84;100394.00;461614;114;923195;-79
2022/09/24 03:05:36;;;;;;;5.97;5.44;;;;;;;10.00;68.98;100391.91;461598;115;923468;-78
2022/09/24 03:06:39;;;;;;;8.02;6.10;;;;;;;10.03;69.11;100394.19;461610;115;922950;-78
2022/09/24 03:07:42;;;;;;;6.36;5.96;;;;;;;10.06;69.05;100392.94;464694;114;922519;-77
2022/09/24 03:08:45;;;;;;;6.99;6.56;;;;;;;10.08;69.01;100400.90;465315;114;923037;-78
2022/09/24 03:09:49;;;;;;;7.76;6.68;;;;;;;10.07;68.97;100397.34;465314;114;922976;-78
2022/09/24 03:10:54;;;;;;;7.19;6.62;;;;;;;10.07;68.80;100402.78;465391;113;922937;-78
2022/09/24 03:11:59;;;;;;;6.15;5.73;;;;;;;10.04;68.82;100400.47;465245;114;923067;-78
2022/09/24 03:13:02;;;;;;;7.52;6.85;;;;;;;10.04;68.82;100400.47;465193;114;922518;-78
2022/09/24 03:14:05;;;;;;;6.94;6.41;;;;;;;10.04;68.77;100401.31;465419;114;922666;-78
2022/09/24 03:15:09;;;;;;;6.32;5.99;;;;;;;10.03;68.82;100399.63;465317;114;922641;-78
2022/09/24 03:16:13;;;;;;;7.12;6.36;;;;;;;10.03;68.81;100404.27;465177;112;922523;-77
2022/09/24 03:17:16;;;;;;;6.89;6.40;;;;;;;10.04;68.89;100404.03;465332;114;922564;-78
2022/09/24 03:18:19;;;;;;;6.04;5.66;;;;;;;10.04;68.90;100400.47;465438;114;922629;-79
2022/09/24 03:19:22;;;;;;;7.09;6.58;;;;;;;10.05;68.91;100402.15;465394;114;922596;-78
2022/09/24 03:20:25;;;;;;;6.71;6.20;;;;;;;10.06;69.05;100398.38;456500;116;923023;-79
2022/09/24 03:21:28;;;;;;;6.69;5.83;;;;;;;10.07;69.05;100400.06;456530;116;922963;-79
2022/09/24 03:22:31;;;;;;;6.69;6.29;;;;;;;10.07;68.95;100397.34;465361;114;922472;-79
2022/09/24 03:23:35;;;;;;;6.24;5.84;;;;;;;10.06;68.97;100398.38;465387;114;922471;-78
2022/09/24 03:24:38;;;;;;;7.16;6.56;;;;;;;10.07;69.06;100399.22;465285;114;923381;-78
2022/09/24 03:25:41;;;;;;;6.97;6.21;;;;;;;10.05;69.08;100402.15;456432;116;930533;-79
2022/09/24 03:26:44;;;;;;;6.58;6.04;;;;;;;10.04;69.07;100400.47;465348;112;922631;-79
2022/09/24 03:27:47;;;;;;;7.14;6.57;;;;;;;10.05;69.15;100396.70;465415;114;923009;-79
2022/09/24 03:28:50;;;;;;;6.36;5.92;;;;;;;10.05;69.28;100393.98;465426;114;922925;-78
2022/09/24 03:31:15;;;;;;;6.51;6.07;;;;;;;10.09;69.28;100391.68;458405;114;923037;-78
2022/09/24 03:32:18;;;;;;;6.89;6.14;;;;;;;10.09;69.36;100403.38;465279;114;922773;-76
2022/09/24 03:33:22;;;;;;;6.58;5.97;;;;;;;10.10;69.35;100402.34;465412;114;922568;-77
2022/09/24 03:34:24;;;;;;;6.08;5.60;;;;;;;10.12;69.49;100402.97;457004;113;923169;-77
2022/09/24 03:35:27;;;;;;;6.57;5.90;;;;;;;10.13;69.46;100403.81;447990;116;922684;-77
2022/09/24 03:36:30;;;;;;;6.48;6.08;;;;;;;10.14;69.45;100408.21;448260;116;922697;-77
2022/09/24 03:37:35;;;;;;;5.83;5.42;;;;;;;10.12;69.44;100408.42;457389;115;922547;-77
2022/09/24 03:38:40;;;;;;;6.67;6.19;;;;;;;10.12;69.39;100405.70;457202;116;922687;-78
2022/09/24 03:39:43;;;;;;;6.85;6.39;;;;;;;10.13;69.47;100398.36;457206;116;923116;-78
2022/09/24 03:40:46;;;;;;;6.51;5.97;;;;;;;10.13;69.39;100404.64;457347;115;922506;-77
2022/09/24 03:41:50;;;;;;;6.75;6.22;;;;;;;10.13;69.35;100407.38;457242;116;923045;-77
2022/09/24 03:42:53;;;;;;;6.18;5.71;;;;;;;10.13;69.36;100407.38;457378;116;922686;-77
2022/09/24 03:43:56;;;;;;;8.14;5.92;;;;;;;10.14;69.35;100408.21;457343;116;923353;-77
2022/09/24 03:44:59;;;;;;;6.45;6.02;;;;;;;10.15;69.35;100410.70;457381;116;922538;-78
2022/09/24 03:46:05;;;;;;;6.92;6.48;;;;;;;10.14;69.34;100406.33;457372;115;922663;-77
2022/09/24 03:47:08;;;;;;;6.39;5.91;;;;;;;10.14;69.23;100411.77;457187;116;922934;-78
2022/09/24 03:48:11;;;;;;;6.45;6.03;;;;;;;10.14;69.24;100408.21;447158;118;922629;-77
2022/09/24 03:49:15;;;;;;;6.18;5.83;;;;;;;10.13;69.26;100404.64;447454;116;930654;-78
2022/09/24 03:50:18;;;;;;;6.08;5.67;;;;;;;10.12;69.28;100408.42;457279;116;922680;-75
2022/09/24 03:51:21;;;;;;;6.54;6.04;;;;;;;10.12;69.26;100408.42;457338;115;922608;-76
2022/09/24 03:52:25;;;;;;;6.66;6.23;;;;;;;10.11;69.26;100412.19;457394;116;922858;-76
2022/09/24 03:53:28;;;;;;;6.46;6.04;;;;;;;10.10;69.37;100418.69;447860;118;923062;-76
2022/09/24 03:54:31;;;;;;;6.74;6.24;;;;;;;10.11;69.31;100423.09;448409;116;923440;-77
2022/09/24 03:55:35;;;;;;;7.21;6.69;;;;;;;10.11;69.35;100416.80;457287;116;922468;-76
2022/09/24 03:56:38;;;;;;;7.18;6.68;;;;;;;10.11;69.46;100416.80;457158;116;930641;-80
2022/09/24 03:57:41;;;;;;;7.10;6.52;;;;;;;10.11;69.45;100420.36;447837;118;930535;-77
2022/09/24 03:58:46;;;;;;;6.72;6.26;;;;;;;10.12;69.44;100419.31;448325;116;922539;-78
2022/09/24 03:59:51;;;;;;;6.86;6.29;;;;;;;10.13;69.48;100415.55;457159;116;923065;-77
2022/09/24 04:00:56;;;;;;;6.73;6.22;;;;;;;10.14;69.51;100416.39;457091;116;923317;-77
2022/09/24 04:01:59;;;;;;;7.08;6.66;;;;;;;10.14;69.47;100416.39;457097;116;923080;-77
2022/09/24 04:03:02;;;;;;;7.69;7.02;;;;;;;10.14;69.37;100413.66;457193;116;922875;-78
2022/09/24 04:04:05;;;;;;;6.96;6.44;;;;;;;10.14;69.46;100422.67;469430;113;922906;-77
2022/09/24 04:05:08;;;;;;;7.46;6.96;;;;;;;10.15;69.52;100416.14;469828;113;922466;-78
2022/09/24 04:06:12;;;;;;;7.46;6.29;;;;;;;10.16;69.51;100419.70;469763;112;923429;-78
2022/09/24 04:07:14;;;;;;;7.25;6.78;;;;;;;10.15;69.52;100418.03;469817;113;922492;-77
2022/09/24 04:08:22;;;;;;;7.61;6.96;;;;;;;10.17;69.50;100418.70;460337;115;922643;-77
2022/09/24 04:09:25;;;;;;;7.54;6.94;;;;;;;10.16;69.53;100414.27;461404;113;922617;-77
2022/09/24 04:10:29;;;;;;;7.28;6.80;;;;;;;10.15;69.54;100418.87;469737;113;922448;-78
2022/09/24 04:11:34;;;;;;;7.63;7.13;;;;;;;10.16;69.63;100417.86;469784;113;923301;-77
2022/09/24 04:12:37;;;;;;;7.37;6.82;;;;;;;10.16;69.62;100412.41;469664;113;922931;-76
2022/09/24 04:13:40;;;;;;;6.76;6.28;;;;;;;10.17;69.56;100410.52;469842;113;922522;-76
2022/09/24 04:14:43;;;;;;;7.09;6.61;;;;;;;10.16;69.51;100409.68;469898;113;922573;-77
2022/09/24 04:15:47;;;;;;;6.81;6.34;;;;;;;10.16;69.53;100411.53;466208;113;922983;-76
2022/09/24 04:16:51;;;;;;;6.74;6.24;;;;;;;10.15;69.58;100418.03;461883;114;922904;-76
2022/09/24 04:17:56;;;;;;;7.15;6.61;;;;;;;10.15;69.50;100415.30;462050;114;922523;-76
2022/09/24 04:19:00;;;;;;;7.35;6.32;;;;;;;10.14;69.54;100411.77;461968;114;922657;-76
2022/09/24 04:20:04;;;;;;;6.97;6.44;;;;;;;10.15;69.55;100424.32;462038;114;922920;-76
2022/09/24 04:21:07;;;;;;;7.84;6.72;;;;;;;10.15;69.62;100423.48;461999;114;922466;-76
2022/09/24 04:22:10;;;;;;;6.86;6.36;;;;;;;10.15;69.70;100424.32;462052;114;930515;-76
2022/09/24 04:23:14;;;;;;;6.81;6.36;;;;;;;10.17;69.69;100424.14;462122;114;922472;-76
2022/09/24 04:24:17;;;;;;;7.06;6.61;;;;;;;10.17;69.75;100427.70;462027;114;922989;-77
2022/09/24 04:25:22;;;;;;;7.39;6.91;;;;;;;10.19;69.81;100427.50;462179;114;922555;-76
2022/09/24 04:26:25;;;;;;;7.12;6.58;;;;;;;10.19;69.88;100433.79;461916;114;922499;-76
2022/09/24 04:27:28;;;;;;;7.20;6.73;;;;;;;10.20;69.92;100432.71;453020;116;923070;-76
2022/09/24 04:28:31;;;;;;;7.13;6.66;;;;;;;10.22;70.00;100433.34;453455;114;923298;-76
2022/09/24 04:29:34;;;;;;;7.12;6.52;;;;;;;10.24;69.98;100438.58;462085;114;922629;-76
2022/09/24 04:30:38;;;;;;;7.64;7.03;;;;;;;10.25;70.11;100435.66;461541;114;922782;-76
2022/09/24 04:31:41;;;;;;;7.11;6.62;;;;;;;10.27;70.02;100433.53;464306;114;922491;-76
2022/09/24 04:32:44;;;;;;;7.11;6.59;;;;;;;10.28;70.04;100435.20;465340;114;930486;-76
2022/09/24 04:33:47;;;;;;;6.91;6.41;;;;;;;10.30;70.20;100426.83;465623;113;923049;-76
2022/09/24 04:34:50;;;;;;;7.09;6.59;;;;;;;10.31;70.15;100431.23;466512;113;922528;-76
2022/09/24 04:35:53;;;;;;;6.81;6.31;;;;;;;10.32;70.24;100428.27;466468;113;922838;-76
2022/09/24 04:36:56;;;;;;;6.41;5.91;;;;;;;10.33;70.21;100429.94;466408;113;923413;-76
2022/09/24 04:37:59;;;;;;;7.09;6.47;;;;;;;10.34;70.28;100434.34;466486;113;922525;-79
2022/09/24 04:39:02;;;;;;;5.92;5.53;;;;;;;10.35;70.24;100422.39;466467;113;923196;-77
2022/09/24 04:40:11;;;;;;;5.94;5.46;;;;;;;10.35;70.26;100422.39;457196;115;922972;-77
2022/09/24 04:41:11;;;;;;;6.29;5.89;;;;;;;10.36;70.19;100429.52;457736;113;922972;-75
2022/09/24 04:42:18;;;;;;;6.62;6.12;;;;;;;10.36;70.27;100423.23;466383;113;922914;-75
2022/09/24 04:43:21;;;;;;;6.15;5.69;;;;;;;10.37;70.24;100428.45;466233;113;930502;-76
2022/09/24 04:44:24;;;;;;;6.36;5.79;;;;;;;10.38;70.31;100432.84;466493;113;922591;-76
2022/09/24 04:45:27;;;;;;;6.64;6.15;;;;;;;10.39;70.25;100431.80;466412;113;922463;-76
2022/09/24 04:46:33;;;;;;;5.44;5.04;;;;;;;10.41;70.35;100435.16;466420;113;922841;-78
2022/09/24 04:47:36;;;;;;;6.36;5.83;;;;;;;10.42;70.30;100436.80;466238;113;923241;-76
2022/09/24 04:48:39;;;;;;;6.35;5.87;;;;;;;10.44;70.31;100437.44;466392;113;922446;-76
2022/09/24 04:49:44;;;;;;;6.04;5.65;;;;;;;10.47;70.32;100438.06;466407;113;931090;-77
2022/09/24 04:50:47;;;;;;;6.57;6.00;;;;;;;10.47;70.33;100438.91;466276;113;922567;-76
2022/09/24 04:51:50;;;;;;;6.10;5.70;;;;;;;10.48;70.45;100429.64;466411;113;922873;-77
2022/09/24 04:52:54;;;;;;;6.80;6.33;;;;;;;10.50;70.45;100433.00;465377;114;922500;-77
2022/09/24 04:53:57;;;;;;;5.93;5.53;;;;;;;10.52;70.49;100428.17;465305;114;923076;-76
2022/09/24 04:55:00;;;;;;;6.34;5.95;;;;;;;10.54;70.55;100433.39;465374;114;922541;-76
2022/09/24 04:56:04;;;;;;;6.12;5.72;;;;;;;10.56;70.49;100436.75;465291;113;922856;-77
2022/09/24 04:57:07;;;;;;;6.25;5.76;;;;;;;10.58;70.50;100431.92;465289;114;922582;-77
2022/09/24 04:58:10;;;;;;;5.56;5.13;;;;;;;10.59;70.54;100437.13;465322;114;930511;-77
2022/09/24 04:59:13;;;;;;;5.86;5.47;;;;;;;10.60;70.51;100433.36;465387;114;922774;-77
2022/09/24 05:00:19;;;;;;;6.03;5.69;;;;;;;10.62;70.55;100425.81;465416;114;922567;-77
2022/09/24 05:01:22;;;;;;;5.65;5.35;;;;;;;10.63;70.51;100429.38;465174;114;922794;-77
2022/09/24 05:02:25;;;;;;;6.61;6.11;;;;;;;10.63;70.54;100427.48;465265;114;922539;-77
2022/09/24 05:03:29;;;;;;;5.94;5.55;;;;;;;10.65;70.54;100429.97;465358;114;930521;-77
2022/09/24 05:04:32;;;;;;;6.42;5.86;;;;;;;10.65;70.49;100424.52;465297;114;923081;-76
2022/09/24 05:05:35;;;;;;;6.12;5.73;;;;;;;10.66;70.52;100423.47;465273;113;930447;-76
2022/09/24 05:06:38;;;;;;;6.58;5.74;;;;;;;10.65;70.40;100425.36;465324;114;923324;-76